sensor_id;sensor_type;location;lat;lon;timestamp;P1;durP1;ratioP1;P2;durP2;ratioP2
61473;SDS011;53694;49.784;30.150;2023-01-05T00:00:22;8.51;;;4.12;;
61473;SDS011;53694;49.784;30.150;2023-01-05T00:01:23;8.58;;;4.15;;
61473;SDS011;53694;49.784;30.150;2023-01-05T00:02:25;10.46;;;4.90;;
61473;SDS011;53694;49.784;30.150;2023-01-05T00:03:28;10.79;;;4.80;;
61473;SDS011;53694;49.784;30.150;2023-01-05T00:04:30;9.97;;;4.55;;
61473;SDS011;53694;49.784;30.150;2023-01-05T00:05:31;14.31;;;4.91;;
61473;SDS011;53694;49.784;30.150;2023-01-05T00:06:33;13.44;;;5.23;;
61473;SDS011;53694;49.784;30.150;2023-01-05T00:07:36;9.37;;;4.99;;
61473;SDS011;53694;49.784;30.150;2023-01-05T00:08:37;9.44;;;5.05;;
61473;SDS011;53694;49.784;30.150;2023-01-05T00:09:40;12.31;;;5.05;;
61473;SDS011;53694;49.784;30.150;2023-01-05T00:10:42;8.35;;;4.23;;
61473;SDS011;53694;49.784;30.150;2023-01-05T00:11:43;9.38;;;4.13;;
61473;SDS011;53694;49.784;30.150;2023-01-05T00:12:45;10.17;;;4.05;;
61473;SDS011;53694;49.784;30.150;2023-01-05T00:13:46;7.54;;;3.83;;
61473;SDS011;53694;49.784;30.150;2023-01-05T00:14:48;10.56;;;4.39;;
61473;SDS011;53694;49.784;30.150;2023-01-05T00:15:49;11.08;;;4.06;;
61473;SDS011;53694;49.784;30.150;2023-01-05T00:16:51;8.37;;;4.13;;
61473;SDS011;53694;49.784;30.150;2023-01-05T00:17:52;7.49;;;3.74;;
61473;SDS011;53694;49.784;30.150;2023-01-05T00:18:54;8.68;;;4.16;;
61473;SDS011;53694;49.784;30.150;2023-01-05T00:19:56;9.39;;;4.33;;
61473;SDS011;53694;49.784;30.150;2023-01-05T00:21:00;9.67;;;4.52;;
61473;SDS011;53694;49.784;30.150;2023-01-05T00:22:07;10.55;;;5.10;;
61473;SDS011;53694;49.784;30.150;2023-01-05T00:23:10;10.01;;;4.70;;
61473;SDS011;53694;49.784;30.150;2023-01-05T00:24:12;15.73;;;5.00;;
61473;SDS011;53694;49.784;30.150;2023-01-05T00:25:14;10.59;;;5.17;;
61473;SDS011;53694;49.784;30.150;2023-01-05T00:26:22;9.53;;;4.53;;
61473;SDS011;53694;49.784;30.150;2023-01-05T00:27:23;14.70;;;5.09;;
61473;SDS011;53694;49.784;30.150;2023-01-05T00:28:26;11.32;;;5.77;;
61473;SDS011;53694;49.784;30.150;2023-01-05T00:29:27;10.10;;;5.28;;
61473;SDS011;53694;49.784;30.150;2023-01-05T00:30:33;9.70;;;4.33;;
61473;SDS011;53694;49.784;30.150;2023-01-05T00:31:34;8.21;;;4.22;;
61473;SDS011;53694;49.784;30.150;2023-01-05T00:32:35;10.55;;;5.13;;
61473;SDS011;53694;49.784;30.150;2023-01-05T00:33:37;10.25;;;3.29;;
61473;SDS011;53694;49.784;30.150;2023-01-05T00:34:38;10.12;;;4.03;;
61473;SDS011;53694;49.784;30.150;2023-01-05T00:35:40;8.15;;;3.91;;
61473;SDS011;53694;49.784;30.150;2023-01-05T00:36:42;7.33;;;3.59;;
61473;SDS011;53694;49.784;30.150;2023-01-05T00:37:44;8.16;;;3.65;;
61473;SDS011;53694;49.784;30.150;2023-01-05T00:38:45;9.85;;;4.20;;
61473;SDS011;53694;49.784;30.150;2023-01-05T00:39:47;12.17;;;4.35;;
61473;SDS011;53694;49.784;30.150;2023-01-05T00:40:49;11.06;;;5.06;;
61473;SDS011;53694;49.784;30.150;2023-01-05T00:41:50;9.99;;;4.21;;
61473;SDS011;53694;49.784;30.150;2023-01-05T00:42:52;12.79;;;4.70;;
61473;SDS011;53694;49.784;30.150;2023-01-05T00:43:53;9.86;;;4.66;;
61473;SDS011;53694;49.784;30.150;2023-01-05T00:44:55;11.49;;;5.09;;
61473;SDS011;53694;49.784;30.150;2023-01-05T00:45:56;10.50;;;5.34;;
61473;SDS011;53694;49.784;30.150;2023-01-05T00:46:58;10.78;;;5.46;;
61473;SDS011;53694;49.784;30.150;2023-01-05T00:47:59;11.51;;;5.88;;
61473;SDS011;53694;49.784;30.150;2023-01-05T00:49:01;11.57;;;5.41;;
61473;SDS011;53694;49.784;30.150;2023-01-05T00:50:03;9.14;;;4.25;;
61473;SDS011;53694;49.784;30.150;2023-01-05T00:51:05;15.88;;;5.06;;
61473;SDS011;53694;49.784;30.150;2023-01-05T00:52:06;9.65;;;4.90;;
61473;SDS011;53694;49.784;30.150;2023-01-05T00:53:08;8.19;;;4.17;;
61473;SDS011;53694;49.784;30.150;2023-01-05T00:54:10;8.05;;;4.49;;
61473;SDS011;53694;49.784;30.150;2023-01-05T00:55:11;10.95;;;4.63;;
61473;SDS011;53694;49.784;30.150;2023-01-05T00:56:14;9.26;;;3.83;;
61473;SDS011;53694;49.784;30.150;2023-01-05T00:57:16;9.36;;;4.28;;
61473;SDS011;53694;49.784;30.150;2023-01-05T00:58:17;9.57;;;4.44;;
61473;SDS011;53694;49.784;30.150;2023-01-05T00:59:19;10.97;;;4.90;;
61473;SDS011;53694;49.784;30.150;2023-01-05T01:00:21;11.07;;;4.81;;
61473;SDS011;53694;49.784;30.150;2023-01-05T01:01:22;10.66;;;5.36;;
61473;SDS011;53694;49.784;30.150;2023-01-05T01:02:24;12.66;;;6.12;;
61473;SDS011;53694;49.784;30.150;2023-01-05T01:03:25;12.26;;;6.34;;
61473;SDS011;53694;49.784;30.150;2023-01-05T01:04:27;12.29;;;6.36;;
61473;SDS011;53694;49.784;30.150;2023-01-05T01:05:31;13.99;;;6.39;;
61473;SDS011;53694;49.784;30.150;2023-01-05T01:06:32;12.28;;;6.69;;
61473;SDS011;53694;49.784;30.150;2023-01-05T01:07:34;14.00;;;6.75;;
61473;SDS011;53694;49.784;30.150;2023-01-05T01:08:35;12.07;;;6.72;;
61473;SDS011;53694;49.784;30.150;2023-01-05T01:09:37;15.96;;;7.17;;
61473;SDS011;53694;49.784;30.150;2023-01-05T01:10:39;13.77;;;6.73;;
61473;SDS011;53694;49.784;30.150;2023-01-05T01:11:40;10.86;;;5.81;;
61473;SDS011;53694;49.784;30.150;2023-01-05T01:12:42;11.19;;;5.70;;
61473;SDS011;53694;49.784;30.150;2023-01-05T01:13:44;13.00;;;5.59;;
61473;SDS011;53694;49.784;30.150;2023-01-05T01:14:46;10.68;;;5.54;;
61473;SDS011;53694;49.784;30.150;2023-01-05T01:15:48;10.91;;;4.96;;
61473;SDS011;53694;49.784;30.150;2023-01-05T01:16:50;10.43;;;5.14;;
61473;SDS011;53694;49.784;30.150;2023-01-05T01:17:52;12.66;;;5.39;;
61473;SDS011;53694;49.784;30.150;2023-01-05T01:18:53;10.75;;;5.31;;
61473;SDS011;53694;49.784;30.150;2023-01-05T01:19:55;10.79;;;5.35;;
61473;SDS011;53694;49.784;30.150;2023-01-05T01:20:56;12.32;;;5.87;;
61473;SDS011;53694;49.784;30.150;2023-01-05T01:21:58;13.88;;;6.47;;
61473;SDS011;53694;49.784;30.150;2023-01-05T01:22:59;13.89;;;6.64;;
61473;SDS011;53694;49.784;30.150;2023-01-05T01:24:01;16.17;;;7.46;;
61473;SDS011;53694;49.784;30.150;2023-01-05T01:25:03;13.94;;;7.38;;
61473;SDS011;53694;49.784;30.150;2023-01-05T01:26:06;16.19;;;7.18;;
61473;SDS011;53694;49.784;30.150;2023-01-05T01:27:08;15.54;;;8.83;;
61473;SDS011;53694;49.784;30.150;2023-01-05T01:28:10;16.46;;;8.51;;
61473;SDS011;53694;49.784;30.150;2023-01-05T01:29:12;16.60;;;8.73;;
61473;SDS011;53694;49.784;30.150;2023-01-05T01:30:13;12.91;;;7.09;;
61473;SDS011;53694;49.784;30.150;2023-01-05T01:31:15;11.83;;;6.04;;
61473;SDS011;53694;49.784;30.150;2023-01-05T01:32:17;14.96;;;6.56;;
61473;SDS011;53694;49.784;30.150;2023-01-05T01:33:18;15.18;;;6.54;;
61473;SDS011;53694;49.784;30.150;2023-01-05T01:34:20;12.43;;;6.17;;
61473;SDS011;53694;49.784;30.150;2023-01-05T01:35:22;18.12;;;6.48;;
61473;SDS011;53694;49.784;30.150;2023-01-05T01:36:23;12.41;;;6.13;;
61473;SDS011;53694;49.784;30.150;2023-01-05T01:37:25;10.05;;;5.68;;
61473;SDS011;53694;49.784;30.150;2023-01-05T01:38:26;14.74;;;6.14;;
61473;SDS011;53694;49.784;30.150;2023-01-05T01:39:28;10.64;;;5.85;;
61473;SDS011;53694;49.784;30.150;2023-01-05T01:40:29;13.41;;;7.34;;
61473;SDS011;53694;49.784;30.150;2023-01-05T01:41:33;12.96;;;6.52;;
61473;SDS011;53694;49.784;30.150;2023-01-05T01:42:35;15.89;;;7.68;;
61473;SDS011;53694;49.784;30.150;2023-01-05T01:45:05;12.23;;;7.06;;
61473;SDS011;53694;49.784;30.150;2023-01-05T01:46:04;14.77;;;7.81;;
61473;SDS011;53694;49.784;30.150;2023-01-05T01:47:08;15.17;;;8.13;;
61473;SDS011;53694;49.784;30.150;2023-01-05T01:48:13;15.86;;;7.90;;
61473;SDS011;53694;49.784;30.150;2023-01-05T01:49:17;14.37;;;6.94;;
61473;SDS011;53694;49.784;30.150;2023-01-05T01:51:02;13.55;;;5.87;;
61473;SDS011;53694;49.784;30.150;2023-01-05T01:52:38;11.51;;;5.86;;
61473;SDS011;53694;49.784;30.150;2023-01-05T01:53:42;11.49;;;6.00;;
61473;SDS011;53694;49.784;30.150;2023-01-05T01:54:46;13.61;;;5.93;;
61473;SDS011;53694;49.784;30.150;2023-01-05T01:55:49;11.34;;;6.12;;
61473;SDS011;53694;49.784;30.150;2023-01-05T01:56:53;12.95;;;6.01;;
61473;SDS011;53694;49.784;30.150;2023-01-05T01:57:56;11.34;;;5.25;;
61473;SDS011;53694;49.784;30.150;2023-01-05T01:59:00;12.46;;;6.16;;
61473;SDS011;53694;49.784;30.150;2023-01-05T02:00:03;12.25;;;6.07;;
61473;SDS011;53694;49.784;30.150;2023-01-05T02:01:07;14.89;;;6.23;;
61473;SDS011;53694;49.784;30.150;2023-01-05T02:02:09;14.59;;;7.61;;
61473;SDS011;53694;49.784;30.150;2023-01-05T02:03:12;13.69;;;6.47;;
61473;SDS011;53694;49.784;30.150;2023-01-05T02:04:14;18.43;;;8.05;;
61473;SDS011;53694;49.784;30.150;2023-01-05T02:05:17;14.80;;;7.60;;
61473;SDS011;53694;49.784;30.150;2023-01-05T02:06:21;16.52;;;8.00;;
61473;SDS011;53694;49.784;30.150;2023-01-05T02:07:24;16.68;;;8.32;;
61473;SDS011;53694;49.784;30.150;2023-01-05T02:08:28;14.71;;;8.24;;
61473;SDS011;53694;49.784;30.150;2023-01-05T02:09:30;18.84;;;9.03;;
61473;SDS011;53694;49.784;30.150;2023-01-05T02:13:35;12.33;;;6.09;;
61473;SDS011;53694;49.784;30.150;2023-01-05T02:16:00;9.99;;;5.70;;
61473;SDS011;53694;49.784;30.150;2023-01-05T02:18:13;14.09;;;6.36;;
61473;SDS011;53694;49.784;30.150;2023-01-05T02:22:03;12.89;;;6.69;;
61473;SDS011;53694;49.784;30.150;2023-01-05T02:24:47;16.49;;;7.10;;
61473;SDS011;53694;49.784;30.150;2023-01-05T02:31:08;17.17;;;7.87;;
61473;SDS011;53694;49.784;30.150;2023-01-05T02:36:18;12.81;;;5.79;;
61473;SDS011;53694;49.784;30.150;2023-01-05T02:37:40;12.53;;;6.29;;
61473;SDS011;53694;49.784;30.150;2023-01-05T02:38:55;14.49;;;7.18;;
61473;SDS011;53694;49.784;30.150;2023-01-05T02:41:13;12.75;;;6.12;;
61473;SDS011;53694;49.784;30.150;2023-01-05T02:42:21;13.23;;;6.43;;
61473;SDS011;53694;49.784;30.150;2023-01-05T02:43:24;12.41;;;6.24;;
61473;SDS011;53694;49.784;30.150;2023-01-05T02:44:29;12.85;;;6.95;;
61473;SDS011;53694;49.784;30.150;2023-01-05T02:45:32;13.63;;;7.64;;
61473;SDS011;53694;49.784;30.150;2023-01-05T02:46:34;16.06;;;7.21;;
61473;SDS011;53694;49.784;30.150;2023-01-05T02:47:43;13.56;;;8.13;;
61473;SDS011;53694;49.784;30.150;2023-01-05T02:48:42;16.62;;;8.92;;
61473;SDS011;53694;49.784;30.150;2023-01-05T02:49:47;19.46;;;9.08;;
61473;SDS011;53694;49.784;30.150;2023-01-05T02:50:51;16.96;;;8.75;;
61473;SDS011;53694;49.784;30.150;2023-01-05T02:52:00;16.33;;;8.04;;
61473;SDS011;53694;49.784;30.150;2023-01-05T02:53:08;14.15;;;7.30;;
61473;SDS011;53694;49.784;30.150;2023-01-05T02:54:11;10.97;;;6.14;;
61473;SDS011;53694;49.784;30.150;2023-01-05T02:55:18;13.34;;;7.04;;
61473;SDS011;53694;49.784;30.150;2023-01-05T02:56:23;12.48;;;7.34;;
61473;SDS011;53694;49.784;30.150;2023-01-05T02:57:28;16.62;;;6.33;;
61473;SDS011;53694;49.784;30.150;2023-01-05T02:58:33;11.33;;;6.34;;
61473;SDS011;53694;49.784;30.150;2023-01-05T02:59:40;11.36;;;6.28;;
61473;SDS011;53694;49.784;30.150;2023-01-05T03:00:44;15.68;;;6.30;;
61473;SDS011;53694;49.784;30.150;2023-01-05T03:02:02;11.53;;;5.97;;
61473;SDS011;53694;49.784;30.150;2023-01-05T03:03:14;12.52;;;6.71;;
61473;SDS011;53694;49.784;30.150;2023-01-05T03:04:36;13.32;;;6.84;;
61473;SDS011;53694;49.784;30.150;2023-01-05T03:05:41;13.76;;;6.92;;
61473;SDS011;53694;49.784;30.150;2023-01-05T03:06:50;14.49;;;7.91;;
61473;SDS011;53694;49.784;30.150;2023-01-05T03:07:50;15.16;;;8.19;;
61473;SDS011;53694;49.784;30.150;2023-01-05T03:08:59;14.44;;;8.19;;
61473;SDS011;53694;49.784;30.150;2023-01-05T03:10:03;14.01;;;8.14;;
61473;SDS011;53694;49.784;30.150;2023-01-05T03:11:07;17.98;;;9.00;;
61473;SDS011;53694;49.784;30.150;2023-01-05T03:12:24;19.55;;;9.84;;
61473;SDS011;53694;49.784;30.150;2023-01-05T03:13:34;23.31;;;9.58;;
61473;SDS011;53694;49.784;30.150;2023-01-05T03:14:47;13.64;;;7.41;;
61473;SDS011;53694;49.784;30.150;2023-01-05T03:15:50;15.09;;;7.64;;
61473;SDS011;53694;49.784;30.150;2023-01-05T03:16:53;14.71;;;7.92;;
61473;SDS011;53694;49.784;30.150;2023-01-05T03:17:57;12.73;;;7.50;;
61473;SDS011;53694;49.784;30.150;2023-01-05T03:19:01;16.18;;;8.15;;
61473;SDS011;53694;49.784;30.150;2023-01-05T03:20:05;15.09;;;6.98;;
61473;SDS011;53694;49.784;30.150;2023-01-05T03:21:08;12.54;;;6.79;;
61473;SDS011;53694;49.784;30.150;2023-01-05T03:22:18;13.17;;;6.17;;
61473;SDS011;53694;49.784;30.150;2023-01-05T03:23:30;13.68;;;6.99;;
61473;SDS011;53694;49.784;30.150;2023-01-05T03:24:32;12.79;;;7.28;;
61473;SDS011;53694;49.784;30.150;2023-01-05T03:25:39;16.69;;;7.57;;
61473;SDS011;53694;49.784;30.150;2023-01-05T03:26:41;13.62;;;7.18;;
61473;SDS011;53694;49.784;30.150;2023-01-05T03:27:43;12.89;;;7.42;;
61473;SDS011;53694;49.784;30.150;2023-01-05T03:28:48;13.45;;;7.28;;
61473;SDS011;53694;49.784;30.150;2023-01-05T03:29:52;15.17;;;8.31;;
61473;SDS011;53694;49.784;30.150;2023-01-05T03:30:57;14.68;;;8.14;;
61473;SDS011;53694;49.784;30.150;2023-01-05T03:32:06;15.00;;;8.59;;
61473;SDS011;53694;49.784;30.150;2023-01-05T03:33:13;15.86;;;8.87;;
61473;SDS011;53694;49.784;30.150;2023-01-05T03:34:25;14.07;;;7.92;;
61473;SDS011;53694;49.784;30.150;2023-01-05T03:35:29;13.46;;;7.53;;
61473;SDS011;53694;49.784;30.150;2023-01-05T03:36:34;14.76;;;7.50;;
61473;SDS011;53694;49.784;30.150;2023-01-05T03:37:45;15.34;;;7.18;;
61473;SDS011;53694;49.784;30.150;2023-01-05T03:38:49;16.66;;;7.48;;
61473;SDS011;53694;49.784;30.150;2023-01-05T03:39:53;11.31;;;7.05;;
61473;SDS011;53694;49.784;30.150;2023-01-05T03:40:56;17.07;;;6.76;;
61473;SDS011;53694;49.784;30.150;2023-01-05T03:42:00;13.67;;;7.57;;
61473;SDS011;53694;49.784;30.150;2023-01-05T03:43:02;15.39;;;7.55;;
61473;SDS011;53694;49.784;30.150;2023-01-05T03:44:05;14.18;;;7.17;;
61473;SDS011;53694;49.784;30.150;2023-01-05T03:45:08;11.89;;;6.67;;
61473;SDS011;53694;49.784;30.150;2023-01-05T03:46:20;13.59;;;6.68;;
61473;SDS011;53694;49.784;30.150;2023-01-05T03:47:21;13.61;;;6.46;;
61473;SDS011;53694;49.784;30.150;2023-01-05T03:48:24;12.77;;;7.40;;
61473;SDS011;53694;49.784;30.150;2023-01-05T03:49:27;15.92;;;7.97;;
61473;SDS011;53694;49.784;30.150;2023-01-05T03:50:29;13.07;;;7.29;;
61473;SDS011;53694;49.784;30.150;2023-01-05T03:51:30;13.55;;;7.78;;
61473;SDS011;53694;49.784;30.150;2023-01-05T03:52:32;17.27;;;8.14;;
61473;SDS011;53694;49.784;30.150;2023-01-05T03:53:33;14.94;;;8.34;;
61473;SDS011;53694;49.784;30.150;2023-01-05T03:54:35;14.83;;;8.24;;
61473;SDS011;53694;49.784;30.150;2023-01-05T03:55:36;15.65;;;7.94;;
61473;SDS011;53694;49.784;30.150;2023-01-05T03:56:38;12.26;;;6.91;;
61473;SDS011;53694;49.784;30.150;2023-01-05T03:57:40;12.26;;;6.71;;
61473;SDS011;53694;49.784;30.150;2023-01-05T03:58:41;14.26;;;7.02;;
61473;SDS011;53694;49.784;30.150;2023-01-05T03:59:43;15.10;;;6.89;;
61473;SDS011;53694;49.784;30.150;2023-01-05T04:00:44;11.11;;;6.00;;
61473;SDS011;53694;49.784;30.150;2023-01-05T04:01:46;14.01;;;6.26;;
61473;SDS011;53694;49.784;30.150;2023-01-05T04:02:48;11.41;;;6.26;;
61473;SDS011;53694;49.784;30.150;2023-01-05T04:03:50;11.26;;;6.21;;
61473;SDS011;53694;49.784;30.150;2023-01-05T04:04:51;12.18;;;6.42;;
61473;SDS011;53694;49.784;30.150;2023-01-05T04:05:53;11.76;;;6.14;;
61473;SDS011;53694;49.784;30.150;2023-01-05T04:06:54;10.59;;;6.05;;
61473;SDS011;53694;49.784;30.150;2023-01-05T04:07:56;12.44;;;5.99;;
61473;SDS011;53694;49.784;30.150;2023-01-05T04:08:57;14.16;;;6.70;;
61473;SDS011;53694;49.784;30.150;2023-01-05T04:09:59;14.22;;;6.64;;
61473;SDS011;53694;49.784;30.150;2023-01-05T04:11:14;10.09;;;6.12;;
61473;SDS011;53694;49.784;30.150;2023-01-05T04:12:14;12.49;;;6.63;;
61473;SDS011;53694;49.784;30.150;2023-01-05T04:13:16;12.21;;;7.15;;
61473;SDS011;53694;49.784;30.150;2023-01-05T04:14:17;14.31;;;7.71;;
61473;SDS011;53694;49.784;30.150;2023-01-05T04:15:19;18.22;;;8.61;;
61473;SDS011;53694;49.784;30.150;2023-01-05T04:16:21;14.00;;;8.66;;
61473;SDS011;53694;49.784;30.150;2023-01-05T04:17:22;13.51;;;7.77;;
61473;SDS011;53694;49.784;30.150;2023-01-05T04:18:24;14.31;;;7.09;;
61473;SDS011;53694;49.784;30.150;2023-01-05T04:19:25;12.66;;;6.59;;
61473;SDS011;53694;49.784;30.150;2023-01-05T04:20:27;13.90;;;6.29;;
61473;SDS011;53694;49.784;30.150;2023-01-05T04:21:28;10.81;;;6.02;;
61473;SDS011;53694;49.784;30.150;2023-01-05T04:22:30;11.69;;;6.26;;
61473;SDS011;53694;49.784;30.150;2023-01-05T04:23:32;15.46;;;6.67;;
61473;SDS011;53694;49.784;30.150;2023-01-05T04:24:35;14.03;;;6.90;;
61473;SDS011;53694;49.784;30.150;2023-01-05T04:25:36;11.61;;;6.21;;
61473;SDS011;53694;49.784;30.150;2023-01-05T04:26:38;11.27;;;6.01;;
61473;SDS011;53694;49.784;30.150;2023-01-05T04:27:40;11.94;;;6.60;;
61473;SDS011;53694;49.784;30.150;2023-01-05T04:28:41;10.56;;;5.84;;
61473;SDS011;53694;49.784;30.150;2023-01-05T04:29:43;9.80;;;5.99;;
61473;SDS011;53694;49.784;30.150;2023-01-05T04:30:47;11.59;;;6.55;;
61473;SDS011;53694;49.784;30.150;2023-01-05T04:31:52;10.93;;;6.23;;
61473;SDS011;53694;49.784;30.150;2023-01-05T04:32:54;10.97;;;6.12;;
61473;SDS011;53694;49.784;30.150;2023-01-05T04:33:55;9.45;;;5.34;;
61473;SDS011;53694;49.784;30.150;2023-01-05T04:34:57;12.15;;;6.15;;
61473;SDS011;53694;49.784;30.150;2023-01-05T04:35:59;11.59;;;6.26;;
61473;SDS011;53694;49.784;30.150;2023-01-05T04:37:01;12.67;;;5.99;;
61473;SDS011;53694;49.784;30.150;2023-01-05T04:38:02;11.25;;;6.09;;
61473;SDS011;53694;49.784;30.150;2023-01-05T04:39:04;10.95;;;6.79;;
61473;SDS011;53694;49.784;30.150;2023-01-05T04:40:06;13.33;;;6.24;;
61473;SDS011;53694;49.784;30.150;2023-01-05T04:41:08;11.11;;;5.79;;
61473;SDS011;53694;49.784;30.150;2023-01-05T04:42:10;13.01;;;6.70;;
61473;SDS011;53694;49.784;30.150;2023-01-05T04:43:11;14.69;;;6.84;;
61473;SDS011;53694;49.784;30.150;2023-01-05T04:44:13;12.52;;;6.60;;
61473;SDS011;53694;49.784;30.150;2023-01-05T04:45:14;14.17;;;7.93;;
61473;SDS011;53694;49.784;30.150;2023-01-05T04:46:17;13.51;;;7.45;;
61473;SDS011;53694;49.784;30.150;2023-01-05T04:47:18;11.85;;;7.14;;
61473;SDS011;53694;49.784;30.150;2023-01-05T04:48:20;14.10;;;6.82;;
61473;SDS011;53694;49.784;30.150;2023-01-05T04:49:21;10.19;;;5.81;;
61473;SDS011;53694;49.784;30.150;2023-01-05T04:50:23;15.64;;;6.34;;
61473;SDS011;53694;49.784;30.150;2023-01-05T04:51:25;11.92;;;6.64;;
61473;SDS011;53694;49.784;30.150;2023-01-05T04:52:26;11.09;;;6.44;;
61473;SDS011;53694;49.784;30.150;2023-01-05T04:53:28;10.16;;;6.24;;
61473;SDS011;53694;49.784;30.150;2023-01-05T04:54:29;10.38;;;6.03;;
61473;SDS011;53694;49.784;30.150;2023-01-05T04:55:31;10.64;;;6.17;;
61473;SDS011;53694;49.784;30.150;2023-01-05T04:56:33;10.14;;;6.06;;
61473;SDS011;53694;49.784;30.150;2023-01-05T04:57:35;11.44;;;6.36;;
61473;SDS011;53694;49.784;30.150;2023-01-05T04:58:36;11.15;;;5.55;;
61473;SDS011;53694;49.784;30.150;2023-01-05T04:59:37;12.22;;;5.96;;
61473;SDS011;53694;49.784;30.150;2023-01-05T05:00:39;10.84;;;5.73;;
61473;SDS011;53694;49.784;30.150;2023-01-05T05:01:41;12.02;;;6.29;;
61473;SDS011;53694;49.784;30.150;2023-01-05T05:02:42;10.31;;;6.55;;
61473;SDS011;53694;49.784;30.150;2023-01-05T05:03:44;10.86;;;5.91;;
61473;SDS011;53694;49.784;30.150;2023-01-05T05:04:46;10.70;;;5.95;;
61473;SDS011;53694;49.784;30.150;2023-01-05T05:05:47;10.86;;;6.10;;
61473;SDS011;53694;49.784;30.150;2023-01-05T05:06:49;10.70;;;5.81;;
61473;SDS011;53694;49.784;30.150;2023-01-05T05:07:50;11.27;;;5.93;;
61473;SDS011;53694;49.784;30.150;2023-01-05T05:08:52;10.97;;;6.57;;
61473;SDS011;53694;49.784;30.150;2023-01-05T05:09:53;10.59;;;6.02;;
61473;SDS011;53694;49.784;30.150;2023-01-05T05:10:55;12.19;;;6.25;;
61473;SDS011;53694;49.784;30.150;2023-01-05T05:11:57;10.30;;;6.38;;
61473;SDS011;53694;49.784;30.150;2023-01-05T05:12:58;12.09;;;7.11;;
61473;SDS011;53694;49.784;30.150;2023-01-05T05:14:00;10.33;;;6.15;;
61473;SDS011;53694;49.784;30.150;2023-01-05T05:15:01;11.89;;;6.99;;
61473;SDS011;53694;49.784;30.150;2023-01-05T05:16:03;11.15;;;6.48;;
61473;SDS011;53694;49.784;30.150;2023-01-05T05:17:05;13.55;;;7.13;;
61473;SDS011;53694;49.784;30.150;2023-01-05T05:18:07;11.84;;;6.37;;
61473;SDS011;53694;49.784;30.150;2023-01-05T05:19:09;12.26;;;6.21;;
61473;SDS011;53694;49.784;30.150;2023-01-05T05:20:13;12.09;;;6.34;;
61473;SDS011;53694;49.784;30.150;2023-01-05T05:21:14;9.45;;;6.05;;
61473;SDS011;53694;49.784;30.150;2023-01-05T05:22:16;10.64;;;6.06;;
61473;SDS011;53694;49.784;30.150;2023-01-05T05:23:18;10.53;;;6.49;;
61473;SDS011;53694;49.784;30.150;2023-01-05T05:24:19;9.19;;;5.35;;
61473;SDS011;53694;49.784;30.150;2023-01-05T05:25:21;12.90;;;6.70;;
61473;SDS011;53694;49.784;30.150;2023-01-05T05:26:23;11.73;;;6.11;;
61473;SDS011;53694;49.784;30.150;2023-01-05T05:27:25;12.99;;;6.21;;
61473;SDS011;53694;49.784;30.150;2023-01-05T05:28:26;11.97;;;6.34;;
61473;SDS011;53694;49.784;30.150;2023-01-05T05:29:28;11.01;;;6.37;;
61473;SDS011;53694;49.784;30.150;2023-01-05T05:30:29;9.71;;;5.52;;
61473;SDS011;53694;49.784;30.150;2023-01-05T05:31:31;9.69;;;5.57;;
61473;SDS011;53694;49.784;30.150;2023-01-05T05:32:33;9.04;;;5.38;;
61473;SDS011;53694;49.784;30.150;2023-01-05T05:33:34;9.75;;;6.03;;
61473;SDS011;53694;49.784;30.150;2023-01-05T05:34:36;10.85;;;5.57;;
61473;SDS011;53694;49.784;30.150;2023-01-05T05:35:38;9.94;;;5.34;;
61473;SDS011;53694;49.784;30.150;2023-01-05T05:36:40;12.01;;;5.71;;
61473;SDS011;53694;49.784;30.150;2023-01-05T05:37:41;10.37;;;5.70;;
61473;SDS011;53694;49.784;30.150;2023-01-05T05:38:43;11.64;;;4.98;;
61473;SDS011;53694;49.784;30.150;2023-01-05T05:39:45;11.42;;;5.58;;
61473;SDS011;53694;49.784;30.150;2023-01-05T05:40:47;9.82;;;5.56;;
61473;SDS011;53694;49.784;30.150;2023-01-05T05:41:49;11.53;;;5.55;;
61473;SDS011;53694;49.784;30.150;2023-01-05T05:42:50;9.95;;;6.02;;
61473;SDS011;53694;49.784;30.150;2023-01-05T05:43:52;10.62;;;5.52;;
61473;SDS011;53694;49.784;30.150;2023-01-05T05:44:54;10.79;;;5.61;;
61473;SDS011;53694;49.784;30.150;2023-01-05T05:45:56;10.19;;;5.27;;
61473;SDS011;53694;49.784;30.150;2023-01-05T05:46:58;11.77;;;6.33;;
61473;SDS011;53694;49.784;30.150;2023-01-05T05:47:59;11.74;;;5.76;;
61473;SDS011;53694;49.784;30.150;2023-01-05T05:49:01;10.41;;;6.08;;
61473;SDS011;53694;49.784;30.150;2023-01-05T05:50:03;11.45;;;5.91;;
61473;SDS011;53694;49.784;30.150;2023-01-05T05:51:05;11.81;;;5.61;;
61473;SDS011;53694;49.784;30.150;2023-01-05T05:52:07;10.47;;;6.15;;
61473;SDS011;53694;49.784;30.150;2023-01-05T05:53:08;12.11;;;5.88;;
61473;SDS011;53694;49.784;30.150;2023-01-05T05:54:09;11.26;;;5.69;;
61473;SDS011;53694;49.784;30.150;2023-01-05T05:55:11;11.43;;;5.97;;
61473;SDS011;53694;49.784;30.150;2023-01-05T05:56:13;8.41;;;5.26;;
61473;SDS011;53694;49.784;30.150;2023-01-05T05:57:15;9.52;;;5.38;;
61473;SDS011;53694;49.784;30.150;2023-01-05T05:58:17;9.54;;;5.69;;
61473;SDS011;53694;49.784;30.150;2023-01-05T05:59:19;10.43;;;5.33;;
61473;SDS011;53694;49.784;30.150;2023-01-05T06:00:21;10.79;;;5.38;;
61473;SDS011;53694;49.784;30.150;2023-01-05T06:01:23;9.91;;;5.29;;
61473;SDS011;53694;49.784;30.150;2023-01-05T06:02:25;12.73;;;5.51;;
61473;SDS011;53694;49.784;30.150;2023-01-05T06:03:26;13.63;;;6.11;;
61473;SDS011;53694;49.784;30.150;2023-01-05T06:04:28;13.96;;;6.41;;
61473;SDS011;53694;49.784;30.150;2023-01-05T06:05:30;13.27;;;6.85;;
61473;SDS011;53694;49.784;30.150;2023-01-05T06:06:32;11.86;;;5.95;;
61473;SDS011;53694;49.784;30.150;2023-01-05T06:07:33;11.46;;;5.99;;
61473;SDS011;53694;49.784;30.150;2023-01-05T06:08:35;13.16;;;7.07;;
61473;SDS011;53694;49.784;30.150;2023-01-05T06:09:36;16.10;;;7.41;;
61473;SDS011;53694;49.784;30.150;2023-01-05T06:10:38;14.13;;;6.52;;
61473;SDS011;53694;49.784;30.150;2023-01-05T06:11:39;12.61;;;6.14;;
61473;SDS011;53694;49.784;30.150;2023-01-05T06:12:41;12.31;;;5.76;;
61473;SDS011;53694;49.784;30.150;2023-01-05T06:13:43;10.05;;;6.07;;
61473;SDS011;53694;49.784;30.150;2023-01-05T06:14:44;10.32;;;5.13;;
61473;SDS011;53694;49.784;30.150;2023-01-05T06:15:46;12.31;;;5.41;;
61473;SDS011;53694;49.784;30.150;2023-01-05T06:16:47;11.47;;;5.78;;
61473;SDS011;53694;49.784;30.150;2023-01-05T06:17:50;11.14;;;6.08;;
61473;SDS011;53694;49.784;30.150;2023-01-05T06:18:53;13.02;;;5.76;;
61473;SDS011;53694;49.784;30.150;2023-01-05T06:19:57;11.18;;;6.36;;
61473;SDS011;53694;49.784;30.150;2023-01-05T06:20:59;10.57;;;5.36;;
61473;SDS011;53694;49.784;30.150;2023-01-05T06:22:01;9.90;;;4.99;;
61473;SDS011;53694;49.784;30.150;2023-01-05T06:23:03;9.81;;;4.89;;
61473;SDS011;53694;49.784;30.150;2023-01-05T06:24:06;10.80;;;5.43;;
61473;SDS011;53694;49.784;30.150;2023-01-05T06:25:08;8.98;;;5.14;;
61473;SDS011;53694;49.784;30.150;2023-01-05T06:26:11;10.18;;;5.45;;
61473;SDS011;53694;49.784;30.150;2023-01-05T06:27:13;8.05;;;5.20;;
61473;SDS011;53694;49.784;30.150;2023-01-05T06:28:14;11.73;;;5.79;;
61473;SDS011;53694;49.784;30.150;2023-01-05T06:29:16;8.62;;;5.16;;
61473;SDS011;53694;49.784;30.150;2023-01-05T06:30:18;9.05;;;5.21;;
61473;SDS011;53694;49.784;30.150;2023-01-05T06:31:20;11.04;;;5.34;;